Time;durP1;ratioP1;P1;durP2;ratioP2;P2;SDS_P1;SDS_P2;PMS_P1;PMS_P2;Temp;Humidity;BMP_temperature;BMP_pressure;BME280_temperature;BME280_humidity;BME280_pressure;Samples;Min_cycle;Max_cycle;Signal;HPM_P1;HPM_P2
2022/04/28 00:00:59;;;;;;;7.03;2.97;;;;;;;21.35;39.21;95043.50;5050755;28;20977;-59
2022/04/28 00:03:26;;;;;;;5.30;2.67;;;;;;;20.91;39.60;95052.69;5051038;28;20553;-57
2022/04/28 00:05:53;;;;;;;5.97;2.73;;;;;;;20.75;39.55;95048.16;5051297;28;20447;-61
2022/04/28 00:08:20;;;;;;;4.93;2.53;;;;;;;20.62;39.88;95044.56;5051103;28;20451;-57
2022/04/28 00:10:46;;;;;;;6.70;3.03;;;;;;;20.96;39.26;95047.19;5050320;28;20553;-58
2022/04/28 00:13:13;;;;;;;6.70;3.27;;;;;;;21.16;39.33;95051.09;5051581;28;20443;-62
2022/04/28 00:15:40;;;;;;;5.97;2.73;;;;;;;21.14;38.85;95048.75;5051054;28;20447;-55
2022/04/28 00:18:07;;;;;;;5.80;2.70;;;;;;;21.45;38.66;95050.38;5050788;28;20477;-59
2022/04/28 00:20:35;;;;;;;7.77;3.20;;;;;;;21.52;38.47;95053.31;5050742;28;20450;-52
2022/04/28 00:23:20;;;;;;;6.40;2.60;;;;;;;21.45;38.59;95053.84;5051081;28;20435;-50
2022/04/28 00:25:46;;;;;;;4.27;2.27;;;;;;;21.53;38.78;95046.91;5050797;28;20980;-60
2022/04/28 00:28:16;;;;;;;5.37;2.73;;;;;;;21.71;38.44;95049.19;5050633;28;20489;-55
2022/04/28 00:30:43;;;;;;;4.77;2.97;;;;;;;21.80;38.34;95057.16;5050630;28;20446;-52
2022/04/28 00:33:13;;;;;;;8.37;2.37;;;;;;;21.83;38.08;95051.19;5051236;28;20474;-54
2022/04/28 00:35:40;;;;;;;5.40;2.73;;;;;;;21.76;38.16;95066.88;5049099;28;20435;-53
2022/04/28 00:38:07;;;;;;;4.93;2.90;;;;;;;21.48;38.58;95060.38;5049586;28;20561;-53
2022/04/28 00:40:33;;;;;;;7.27;2.73;;;;;;;21.45;38.74;95071.72;5050371;28;20450;-60
2022/04/28 00:43:18;;;;;;;5.57;2.90;;;;;;;21.34;39.00;95078.47;5050484;28;20462;-57
2022/04/28 00:45:47;;;;;;;5.17;3.10;;;;;;;21.56;38.73;95068.38;5048697;28;20860;-59
2022/04/28 00:51:02;;;;;;;7.70;3.27;;;;;;;21.52;38.76;95066.66;5050044;28;20439;-57
2022/04/28 00:53:30;;;;;;;4.70;3.30;;;;;;;21.38;38.56;95063.44;5048884;28;20538;-62
2022/04/28 00:55:57;;;;;;;8.43;3.30;;;;;;;21.48;38.16;95071.84;5049904;28;20435;-61
2022/04/28 00:58:25;;;;;;;6.73;3.53;;;;;;;21.49;38.23;95077.97;5050087;28;20439;-57
2022/04/28 01:00:55;;;;;;;4.87;3.20;;;;;;;21.53;38.31;95073.56;5049733;28;20435;-55
2022/04/28 01:03:23;;;;;;;7.67;3.47;;;;;;;21.31;38.64;95077.25;5050138;28;20439;-56
2022/04/28 01:05:50;;;;;;;6.17;3.37;;;;;;;21.33;38.43;95079.59;5048454;28;20512;-54
2022/04/28 01:08:17;;;;;;;6.47;3.33;;;;;;;21.27;38.72;95078.19;5048669;28;20493;-56
2022/04/28 01:10:44;;;;;;;7.63;3.27;;;;;;;21.27;38.31;95072.84;5048425;28;20454;-54
2022/04/28 01:13:11;;;;;;;8.03;3.97;;;;;;;21.23;38.62;95074.59;5048469;28;20518;-54
2022/04/28 01:15:44;;;;;;;5.57;3.30;;;;;;;21.28;38.67;95082.41;5048354;28;20443;-57
2022/04/28 01:18:12;;;;;;;5.83;3.07;;;;;;;21.27;38.70;95075.53;5048400;28;20474;-58
2022/04/28 01:20:41;;;;;;;13.93;3.40;;;;;;;21.17;38.74;95075.88;5048547;28;20471;-59
2022/04/28 01:23:08;;;;;;;7.27;3.03;;;;;;;20.94;39.08;95070.72;5048858;28;20445;-58
2022/04/28 01:25:35;;;;;;;6.10;3.30;;;;;;;20.84;39.36;95079.00;5049254;28;20446;-58
2022/04/28 01:28:03;;;;;;;5.47;2.93;;;;;;;20.86;39.75;95079.47;5048062;28;21040;-57
2022/04/28 01:30:30;;;;;;;7.47;3.20;;;;;;;20.78;39.34;95084.81;5047727;28;20439;-59
2022/04/28 01:32:58;;;;;;;6.83;3.77;;;;;;;20.82;39.53;95078.53;5048262;28;21017;-60
2022/04/28 01:35:25;;;;;;;5.30;3.30;;;;;;;20.47;40.04;95087.66;5047939;28;20455;-59
2022/04/28 01:37:53;;;;;;;6.03;3.20;;;;;;;20.13;40.88;95084.88;5048090;28;20466;-58
2022/04/28 01:40:21;;;;;;;8.43;3.60;;;;;;;20.37;40.21;95085.28;5049313;28;20493;-55
2022/04/28 01:42:48;;;;;;;7.40;3.23;;;;;;;20.66;39.51;95088.09;5047989;28;20826;-57
2022/04/28 01:45:18;;;;;;;7.60;3.40;;;;;;;20.83;39.12;95082.00;5047254;28;20442;-52
2022/04/28 01:47:58;;;;;;;8.23;3.17;;;;;;;20.77;39.22;95089.34;5048033;28;20524;-56
2022/04/28 01:56:34;;;;;;;5.97;2.87;;;;;;;20.72;39.46;95097.50;5049108;28;20538;-60
2022/04/28 01:59:24;;;;;;;8.37;3.80;;;;;;;20.88;39.44;95098.59;5048300;28;20457;-56
2022/04/28 02:01:57;;;;;;;9.77;3.23;;;;;;;21.01;39.18;95100.34;5049156;28;20451;-53
2022/04/28 02:04:24;;;;;;;5.30;3.47;;;;;;;21.21;39.22;95103.44;5048027;28;20479;-52
2022/04/28 02:06:53;;;;;;;5.40;3.27;;;;;;;21.21;38.66;95092.78;5047193;28;20504;-58
2022/04/28 02:09:20;;;;;;;7.40;3.20;;;;;;;21.13;38.83;95108.47;5048628;28;20778;-54
2022/04/28 02:11:48;;;;;;;7.17;3.40;;;;;;;21.23;38.68;95106.56;5047200;28;20481;-63
2022/04/28 02:14:47;;;;;;;8.33;2.93;;;;;;;21.35;38.51;95085.41;5046930;28;20450;-58
2022/04/28 02:17:39;;;;;;;5.20;3.03;;;;;;;21.25;38.63;95104.38;5038014;28;20467;-58
2022/04/28 02:20:09;;;;;;;6.57;3.47;;;;;;;21.35;38.67;95104.06;5047219;28;20478;-54
2022/04/28 02:22:38;;;;;;;11.03;3.43;;;;;;;21.29;39.04;95111.44;5047111;28;20505;-60
2022/04/28 02:25:08;;;;;;;10.63;3.70;;;;;;;21.10;39.44;95103.78;5047146;28;20457;-54
2022/04/28 02:27:35;;;;;;;6.03;3.73;;;;;;;21.01;39.75;95115.53;5047602;28;20908;-58
2022/04/28 02:30:04;;;;;;;12.13;3.83;;;;;;;21.00;40.14;95114.00;5047279;28;20458;-61
2022/04/28 02:33:08;;;;;;;9.20;3.90;;;;;;;20.86;39.40;95087.47;5047659;28;20501;-60
2022/04/28 02:35:20;;;;;;;7.93;4.10;;;;;;;20.98;39.66;95108.16;5049986;28;20462;-56
2022/04/28 02:37:48;;;;;;;10.87;4.60;;;;;;;21.21;39.26;95108.75;5051231;28;20466;-58
2022/04/28 02:40:16;;;;;;;7.87;4.23;;;;;;;21.15;39.19;95116.94;5051174;28;20513;-58
2022/04/28 02:42:44;;;;;;;7.80;4.47;;;;;;;20.97;39.54;95115.34;5051462;28;20434;-63
2022/04/28 02:45:11;;;;;;;8.77;4.93;;;;;;;20.67;40.34;95116.31;5052218;28;20450;-55
2022/04/28 02:47:43;;;;;;;6.57;4.57;;;;;;;20.94;40.01;95110.66;5051746;28;21042;-59
2022/04/28 02:50:11;;;;;;;9.27;3.93;;;;;;;20.81;40.26;95116.94;5051056;28;20446;-57
2022/04/28 02:52:40;;;;;;;9.07;4.57;;;;;;;20.81;40.32;95116.16;5051315;28;20490;-53
2022/04/28 02:55:08;;;;;;;16.43;4.70;;;;;;;20.84;40.22;95121.63;5051973;28;20508;-54
2022/04/28 02:57:36;;;;;;;17.83;5.83;;;;;;;20.86;40.41;95129.28;5051587;28;20455;-57
2022/04/28 03:00:05;;;;;;;14.30;5.50;;;;;;;20.89;40.95;95134.03;5050745;28;20525;-55
2022/04/28 03:02:41;;;;;;;8.47;5.37;;;;;;;20.30;42.14;95122.22;5051297;28;20447;-59
2022/04/28 03:05:08;;;;;;;9.70;5.63;;;;;;;20.17;42.74;95123.91;5050807;28;20446;-57
2022/04/28 03:10:52;;;;;;;12.37;6.00;;;;;;;20.03;44.02;95139.19;5050741;28;20439;-51
2022/04/28 03:13:23;;;;;;;11.67;5.40;;;;;;;20.27;43.21;95128.16;5050686;28;21091;-50
2022/04/28 03:15:54;;;;;;;12.73;6.40;;;;;;;20.34;42.91;95138.34;5050414;28;20442;-57
2022/04/28 03:18:34;;;;;;;14.77;6.30;;;;;;;20.28;43.29;95144.91;5050626;28;21041;-59
2022/04/28 03:21:02;;;;;;;10.77;5.57;;;;;;;20.10;43.93;95138.72;5051729;28;20855;-53
2022/04/28 03:23:29;;;;;;;13.17;5.67;;;;;;;20.25;43.34;95151.63;5052209;28;20446;-52
2022/04/28 03:25:56;;;;;;;12.13;5.70;;;;;;;20.51;42.74;95149.78;5050309;28;20508;-60
2022/04/28 03:28:23;;;;;;;8.13;5.87;;;;;;;20.72;42.51;95145.44;5051905;28;20442;-61
2022/04/28 03:33:54;;;;;;;8.50;5.63;;;;;;;20.85;42.22;95159.72;5052129;28;21023;-57
2022/04/28 03:39:30;;;;;;;8.27;5.83;;;;;;;20.86;42.42;95171.91;5009891;28;21175;-65
2022/04/28 03:41:58;;;;;;;16.10;6.20;;;;;;;20.83;42.70;95173.34;5041034;28;20457;-57
2022/04/28 03:44:24;;;;;;;12.23;5.80;;;;;;;20.94;42.31;95171.94;5050413;28;20451;-60
2022/04/28 03:46:51;;;;;;;10.93;5.93;;;;;;;20.76;42.37;95183.69;5048650;28;20447;-53
2022/04/28 03:49:19;;;;;;;9.07;5.60;;;;;;;20.69;42.79;95183.34;5050120;28;21012;-60
2022/04/28 03:51:46;;;;;;;11.63;6.27;;;;;;;20.45;43.04;95172.34;5049994;28;21031;-59
2022/04/28 03:54:13;;;;;;;16.50;6.33;;;;;;;20.60;43.15;95189.75;5050505;28;20443;-58
2022/04/28 03:56:40;;;;;;;8.77;6.90;;;;;;;20.40;43.98;95191.09;5049463;28;20453;-59
2022/04/28 03:59:10;;;;;;;8.97;7.37;;;;;;;20.73;43.41;95194.94;5049962;28;20447;-56
2022/04/28 04:01:57;;;;;;;8.07;7.27;;;;;;;20.65;43.62;95187.75;5046749;28;20466;-54
2022/04/28 04:04:25;;;;;;;9.37;7.07;;;;;;;20.70;43.71;95189.44;5050101;28;20938;-55
2022/04/28 04:06:57;;;;;;;11.23;7.13;;;;;;;20.73;43.54;95189.63;5049303;28;20446;-57
2022/04/28 04:09:36;;;;;;;12.10;8.27;;;;;;;20.01;45.44;95188.44;5050757;28;20427;-56
2022/04/28 04:12:13;;;;;;;13.47;8.43;;;;;;;20.30;44.69;95199.38;5049891;28;20872;-59
2022/04/28 04:15:01;;;;;;;11.70;8.00;;;;;;;20.28;44.74;95198.91;5038762;28;20442;-57
2022/04/28 04:17:48;;;;;;;11.30;7.90;;;;;;;20.48;44.54;95198.34;5043598;28;20482;-53
2022/04/28 04:20:15;;;;;;;11.10;8.57;;;;;;;20.30;44.77;95201.25;5049240;28;20489;-52
2022/04/28 04:22:42;;;;;;;12.30;9.00;;;;;;;20.23;45.04;95200.94;5050953;28;20508;-52
2022/04/28 04:25:09;;;;;;;13.80;10.63;;;;;;;19.87;46.09;95204.50;5049494;28;20446;-56
2022/04/28 04:27:37;;;;;;;11.53;9.60;;;;;;;20.31;44.94;95198.28;5049697;28;20474;-64
2022/04/28 04:33:02;;;;;;;13.07;9.03;;;;;;;19.91;45.98;95220.63;5049249;28;20509;-54
2022/04/28 04:35:30;;;;;;;16.33;10.73;;;;;;;19.48;47.01;95212.41;5048999;28;20439;-58
2022/04/28 04:37:59;;;;;;;13.13;10.90;;;;;;;19.89;46.04;95217.50;5066026;28;20463;-55
2022/04/28 04:40:27;;;;;;;10.67;9.60;;;;;;;19.38;47.03;95222.50;5065330;28;20445;-51
2022/04/28 04:42:56;;;;;;;11.60;9.30;;;;;;;19.73;46.20;95206.47;5050489;28;20431;-56
2022/04/28 04:45:23;;;;;;;13.40;9.80;;;;;;;20.08;45.93;95210.88;5048574;28;20453;-61
2022/04/28 04:48:10;;;;;;;9.67;8.67;;;;;;;19.15;47.81;95211.84;5050747;28;20437;-56
2022/04/28 04:50:59;;;;;;;9.27;8.03;;;;;;;19.68;46.19;95219.88;5049994;28;20810;-57
2022/04/28 04:53:33;;;;;;;8.57;7.67;;;;;;;19.21;47.37;95231.88;5049028;28;21367;-57
2022/04/28 04:56:00;;;;;;;10.90;8.47;;;;;;;19.18;47.20;95229.03;5048637;28;20455;-60
2022/04/28 04:58:28;;;;;;;9.60;7.43;;;;;;;19.45;46.33;95223.63;5048871;28;20435;-54
2022/04/28 05:00:56;;;;;;;10.83;7.07;;;;;;;19.49;45.93;95234.47;5049724;28;20423;-58
2022/04/28 05:03:24;;;;;;;9.00;6.93;;;;;;;18.94;47.49;95239.16;5050385;28;20952;-56
2022/04/28 05:05:53;;;;;;;9.63;6.53;;;;;;;17.84;49.40;95248.19;5049923;28;20435;-56
2022/04/28 05:08:27;;;;;;;9.03;5.93;;;;;;;18.11;49.50;95242.13;5048622;28;20829;-58
2022/04/28 05:10:59;;;;;;;8.80;6.40;;;;;;;18.47;48.86;95251.00;5048487;28;20540;-56
2022/04/28 05:13:26;;;;;;;8.73;6.03;;;;;;;18.90;47.89;95249.56;5049097;28;20533;-59
2022/04/28 05:15:55;;;;;;;9.70;5.07;;;;;;;18.63;48.11;95249.63;5048471;28;20472;-60
2022/04/28 05:18:36;;;;;;;4.83;4.43;;;;;;;17.81;49.91;95258.59;5048237;28;20580;-55
2022/04/28 05:21:23;;;;;;;6.13;4.00;;;;;;;17.78;49.66;95259.16;5037963;28;20500;-59
2022/04/28 05:24:20;;;;;;;6.20;3.80;;;;;;;17.41;50.77;95267.16;5049875;28;20457;-51
2022/04/28 05:27:06;;;;;;;7.63;3.50;;;;;;;17.07;50.91;95276.13;5049823;28;20524;-59
2022/04/28 05:29:52;;;;;;;4.03;3.50;;;;;;;17.51;50.18;95280.28;5049042;28;20478;-57
2022/04/28 05:32:31;;;;;;;11.70;2.50;;;;;;;17.60;49.90;95262.63;5050087;28;20936;-60
2022/04/28 05:35:08;;;;;;;4.07;2.60;;;;;;;17.43;50.27;95275.59;5047690;28;20442;-55
2022/04/28 05:37:35;;;;;;;2.90;2.63;;;;;;;18.07;48.26;95272.97;5048403;28;20446;-59
2022/04/28 05:40:05;;;;;;;4.47;2.80;;;;;;;18.21;48.23;95279.06;5047674;28;20762;-57
2022/04/28 05:48:03;;;;;;;6.17;2.10;;;;;;;17.96;48.49;95284.81;5049104;28;20489;-59
2022/04/28 05:50:40;;;;;;;5.30;2.30;;;;;;;17.68;49.23;95285.84;5047197;28;20446;-58
2022/04/28 05:53:08;;;;;;;5.37;2.83;;;;;;;17.12;50.40;95294.59;5048124;28;21086;-58
2022/04/28 05:55:36;;;;;;;2.60;2.20;;;;;;;17.63;49.39;95283.25;5047529;28;20525;-59
2022/04/28 05:58:03;;;;;;;2.20;2.00;;;;;;;17.06;50.90;95305.53;5047623;28;20447;-52
2022/04/28 06:00:33;;;;;;;3.83;2.30;;;;;;;16.81;52.03;95304.00;5047060;28;20439;-57
2022/04/28 06:03:01;;;;;;;3.73;2.43;;;;;;;16.81;52.06;95308.50;5048000;28;20474;-60
2022/04/28 06:05:35;;;;;;;3.37;2.60;;;;;;;17.63;50.65;95304.44;5047405;28;20503;-60
2022/04/28 06:08:03;;;;;;;6.27;2.30;;;;;;;17.55;50.74;95305.13;5049151;28;20435;-60
2022/04/28 06:10:30;;;;;;;7.57;2.20;;;;;;;17.39;50.93;95309.06;5046959;28;20473;-58
2022/04/28 06:12:57;;;;;;;4.03;2.13;;;;;;;17.53;50.40;95309.91;5047657;28;20473;-61
2022/04/28 06:15:27;;;;;;;2.80;2.07;;;;;;;16.81;52.58;95314.59;5048408;28;20809;-55
2022/04/28 06:18:16;;;;;;;3.43;2.50;;;;;;;16.29;54.10;95316.47;5047729;28;20937;-58
2022/04/28 06:20:43;;;;;;;2.43;2.10;;;;;;;16.63;53.79;95314.53;5047899;28;20447;-54
2022/04/28 06:23:13;;;;;;;3.67;2.30;;;;;;;16.65;53.47;95315.84;5047751;28;20512;-59
2022/04/28 06:25:45;;;;;;;1.97;1.87;;;;;;;16.53;53.96;95317.31;5047349;28;20443;-59
2022/04/28 06:28:14;;;;;;;3.60;2.20;;;;;;;16.10;55.51;95319.84;5047897;28;20443;-61
2022/04/28 06:30:46;;;;;;;5.77;2.20;;;;;;;15.87;55.53;95317.16;5046974;28;20458;-52
2022/04/28 06:33:31;;;;;;;7.23;2.37;;;;;;;16.74;53.43;95327.38;5049150;28;20497;-60
2022/04/28 06:36:02;;;;;;;4.27;2.50;;;;;;;17.08;53.00;95325.34;5047309;28;20857;-63
2022/04/28 06:38:37;;;;;;;3.67;2.10;;;;;;;17.26;52.12;95325.66;5047891;28;21033;-54
2022/04/28 06:41:07;;;;;;;2.83;2.40;;;;;;;17.03;53.20;95322.78;5047025;28;21047;-60
2022/04/28 06:43:37;;;;;;;4.40;2.00;;;;;;;16.30;55.01;95332.06;5047820;28;20453;-59
2022/04/28 06:46:23;;;;;;;2.93;2.20;;;;;;;17.02;52.72;95326.47;5048453;28;20438;-53
2022/04/28 06:49:10;;;;;;;4.63;2.23;;;;;;;16.66;53.06;95322.69;5048259;28;20438;-56
2022/04/28 06:51:57;;;;;;;2.77;2.33;;;;;;;16.62;53.77;95329.66;5048527;28;20446;-57
2022/04/28 06:54:39;;;;;;;3.40;2.07;;;;;;;16.07;54.96;95338.91;5047002;28;20495;-59
2022/04/28 06:57:08;;;;;;;4.07;2.13;;;;;;;16.68;53.84;95331.16;5047621;28;20533;-59
2022/04/28 06:59:38;;;;;;;3.13;1.87;;;;;;;16.87;53.41;95334.63;5047131;28;20449;-58
2022/04/28 07:02:10;;;;;;;3.30;1.87;;;;;;;16.74;53.71;95329.22;5047033;28;20512;-60
2022/04/28 07:04:40;;;;;;;5.57;1.90;;;;;;;16.23;54.70;95347.47;5046639;28;20895;-55
2022/04/28 07:07:11;;;;;;;2.83;2.20;;;;;;;16.32;54.82;95337.88;5047202;28;20471;-57
2022/04/28 07:09:39;;;;;;;8.17;2.27;;;;;;;16.34;54.84;95346.31;5046513;28;20439;-54
2022/04/28 07:12:29;;;;;;;4.03;1.83;;;;;;;16.54;54.19;95350.63;5047080;28;20455;-56
2022/04/28 07:14:55;;;;;;;2.23;1.63;;;;;;;16.29;54.72;95341.06;5048714;28;20501;-58
2022/04/28 07:17:45;;;;;;;2.27;1.70;;;;;;;16.41;54.47;95335.38;5048117;28;20916;-58
2022/04/28 07:20:12;;;;;;;5.20;2.37;;;;;;;16.70;53.29;95344.88;5047433;28;20928;-53
2022/04/28 07:22:40;;;;;;;8.80;2.40;;;;;;;16.46;53.88;95338.78;5051037;28;20439;-51
2022/04/28 07:25:08;;;;;;;3.53;2.03;;;;;;;17.23;52.05;95354.28;5050605;28;20910;-59
2022/04/28 07:27:34;;;;;;;3.57;2.27;;;;;;;17.13;52.10;95349.09;5050833;28;20435;-50
2022/04/28 07:30:18;;;;;;;2.70;2.30;;;;;;;16.34;54.53;95356.09;5050212;28;20488;-60
2022/04/28 07:32:45;;;;;;;4.10;2.00;;;;;;;17.29;52.35;95333.03;5050553;28;20991;-57
2022/04/28 07:35:15;;;;;;;2.97;2.60;;;;;;;16.75;52.83;95355.41;5051657;28;20908;-57
2022/04/28 07:38:08;;;;;;;6.70;3.07;;;;;;;16.95;52.99;95357.81;5035667;28;20512;-61
2022/04/28 07:41:02;;;;;;;2.67;2.33;;;;;;;16.51;53.47;95357.28;5049510;28;20451;-57
2022/04/28 07:43:30;;;;;;;9.23;2.63;;;;;;;16.48;53.90;95363.13;5050509;28;20972;-58
2022/04/28 07:45:57;;;;;;;8.63;2.90;;;;;;;16.81;52.73;95341.06;5050167;28;20513;-53
2022/04/28 07:48:25;;;;;;;5.80;2.80;;;;;;;17.11;52.19;95345.97;5050286;28;20554;-51
2022/04/28 07:50:53;;;;;;;15.03;3.67;;;;;;;17.79;50.84;95342.91;5049897;28;20542;-54
2022/04/28 07:53:22;;;;;;;7.13;2.90;;;;;;;18.39;49.04;95344.56;5049973;28;20483;-59
2022/04/28 07:58:37;;;;;;;4.47;2.83;;;;;;;18.26;49.65;95355.91;5051481;28;20523;-60
2022/04/28 08:01:24;;;;;;;2.30;1.73;;;;;;;18.14;48.63;95355.56;5039569;28;20625;-53
2022/04/28 08:03:53;;;;;;;5.37;2.07;;;;;;;17.20;51.18;95370.75;5050109;28;20442;-62
2022/04/28 08:06:21;;;;;;;2.50;1.80;;;;;;;16.88;51.28;95373.25;5049691;28;20505;-58
2022/04/28 08:08:48;;;;;;;7.43;2.20;;;;;;;17.15;50.87;95373.44;5049950;28;20512;-60
2022/04/28 08:11:15;;;;;;;4.67;2.10;;;;;;;17.12;51.00;95371.38;5050839;28;20446;-52
2022/04/28 08:13:44;;;;;;;2.50;1.93;;;;;;;16.87;51.68;95366.41;5050050;28;20501;-60
2022/04/28 08:16:11;;;;;;;2.10;1.90;;;;;;;17.03;51.58;95364.34;5050476;28;20445;-56
2022/04/28 08:18:44;;;;;;;4.67;2.10;;;;;;;16.56;51.75;95373.09;5049578;28;20489;-56
2022/04/28 08:21:31;;;;;;;2.20;2.00;;;;;;;17.20;51.26;95367.31;5050764;28;20532;-59
2022/04/28 08:23:58;;;;;;;8.17;2.60;;;;;;;17.50;50.10;95382.03;5049929;28;20825;-57
2022/04/28 08:26:25;;;;;;;2.50;1.87;;;;;;;16.97;51.29;95373.44;5049364;28;20823;-54
2022/04/28 08:28:55;;;;;;;3.27;2.03;;;;;;;16.97;50.91;95376.09;5049417;28;20870;-57
2022/04/28 08:31:24;;;;;;;6.07;2.47;;;;;;;17.18;50.39;95375.56;5048493;28;20444;-54
2022/04/28 08:33:51;;;;;;;3.80;2.40;;;;;;;17.12;50.90;95383.81;5049122;28;20849;-58
2022/04/28 08:36:20;;;;;;;2.70;2.10;;;;;;;17.83;48.93;95381.81;5049281;28;20987;-64
2022/04/28 08:38:52;;;;;;;3.00;2.00;;;;;;;18.13;48.20;95383.19;5049279;28;20526;-60
2022/04/28 08:41:31;;;;;;;6.43;2.60;;;;;;;17.85;48.56;95370.91;5048765;28;20850;-58
2022/04/28 08:44:22;;;;;;;9.20;2.77;;;;;;;17.52;49.65;95382.53;5051042;28;20438;-58
2022/04/28 08:47:00;;;;;;;11.60;2.90;;;;;;;17.58;48.97;95365.47;5049043;28;20454;-56
2022/04/28 08:49:32;;;;;;;8.63;2.77;;;;;;;17.53;48.98;95389.41;5049118;28;21319;-61
2022/04/28 08:52:19;;;;;;;5.83;2.10;;;;;;;17.90;48.50;95378.81;5050008;28;20455;-61
2022/04/28 08:54:53;;;;;;;3.57;2.30;;;;;;;17.78;48.41;95387.19;5048827;28;20945;-59
2022/04/28 08:57:24;;;;;;;13.37;3.10;;;;;;;17.23;50.15;95380.78;5049269;28;20439;-57
2022/04/28 08:59:55;;;;;;;9.40;2.40;;;;;;;17.78;49.28;95386.38;5048629;28;20531;-59
2022/04/28 09:02:24;;;;;;;10.77;2.60;;;;;;;17.56;50.19;95378.22;5049206;28;20443;-57
2022/04/28 09:05:18;;;;;;;6.47;2.63;;;;;;;18.21;48.98;95385.97;5048140;28;20935;-55
2022/04/28 09:08:24;;;;;;;6.47;2.70;;;;;;;18.52;47.96;95380.16;5050136;28;20454;-58
2022/04/28 09:11:29;;;;;;;5.00;3.10;;;;;;;18.14;47.74;95387.41;5049274;28;20454;-60
2022/04/28 09:14:22;;;;;;;4.60;3.20;;;;;;;18.15;48.10;95386.34;5030131;28;20885;-57
2022/04/28 09:17:04;;;;;;;6.97;2.70;;;;;;;18.66;47.03;95381.75;5048106;28;20435;-58
2022/04/28 09:19:39;;;;;;;22.53;5.90;;;;;;;18.52;47.05;95386.25;5048533;28;20476;-59
2022/04/28 09:22:17;;;;;;;6.80;3.20;;;;;;;18.42;46.94;95383.00;5049180;28;20985;-55
2022/04/28 09:24:45;;;;;;;12.07;3.50;;;;;;;18.45;47.30;95385.84;5048038;28;20447;-57
2022/04/28 09:27:16;;;;;;;5.83;2.80;;;;;;;18.01;47.89;95396.13;5048840;28;20562;-56
2022/04/28 09:29:46;;;;;;;5.70;2.73;;;;;;;18.89;46.32;95374.69;5047842;28;20458;-62
2022/04/28 09:32:15;;;;;;;6.50;2.80;;;;;;;18.48;47.66;95382.63;5048208;28;20450;-52
2022/04/28 09:35:11;;;;;;;7.23;3.20;;;;;;;18.03;48.24;95386.00;5049095;28;20849;-61
2022/04/28 09:38:01;;;;;;;9.93;3.30;;;;;;;18.58;46.97;95392.25;5046500;28;20477;-59
2022/04/28 09:43:36;;;;;;;4.53;2.70;;;;;;;18.75;46.30;95390.63;5047517;28;20576;-57
2022/04/28 09:46:04;;;;;;;6.40;4.27;;;;;;;19.12;45.53;95389.63;5049365;28;20450;-53
2022/04/28 09:48:32;;;;;;;4.80;3.17;;;;;;;19.39;44.57;95383.53;5049325;28;20504;-57
2022/04/28 09:51:06;;;;;;;6.23;3.00;;;;;;;19.69;44.65;95383.63;5048621;28;21266;-61
2022/04/28 09:53:52;;;;;;;8.80;3.20;;;;;;;19.61;44.24;95380.91;5049222;28;20473;-60
2022/04/28 09:56:39;;;;;;;5.90;3.20;;;;;;;19.57;44.25;95385.25;5049094;28;20438;-54
2022/04/28 09:59:23;;;;;;;5.67;2.97;;;;;;;18.98;45.15;95379.00;5047833;28;20443;-56
2022/04/28 10:01:52;;;;;;;4.57;3.13;;;;;;;19.62;44.11;95382.47;5048606;28;20443;-60
2022/04/28 10:04:19;;;;;;;5.47;3.13;;;;;;;19.47;44.22;95380.94;5047706;28;20442;-59
2022/04/28 10:07:15;;;;;;;5.70;3.30;;;;;;;19.88;43.66;95370.19;5046870;28;20473;-64
2022/04/28 10:09:48;;;;;;;6.93;3.40;;;;;;;19.42;43.72;95377.59;5047110;28;20864;-59
2022/04/28 10:12:28;;;;;;;7.13;3.10;;;;;;;19.63;43.24;95378.75;5047604;28;20442;-58
2022/04/28 10:15:18;;;;;;;7.80;3.90;;;;;;;19.72;43.25;95374.28;5029043;28;20583;-59
2022/04/28 10:17:55;;;;;;;5.37;3.47;;;;;;;19.73;42.84;95373.19;5047694;28;20479;-58
2022/04/28 10:21:00;;;;;;;6.83;3.53;;;;;;;19.90;42.92;95376.00;5046827;28;20533;-61
2022/04/28 10:32:55;;;;;;;6.37;4.10;;;;;;;19.86;43.14;95367.03;5047751;28;21004;-60
2022/04/28 10:35:44;;;;;;;11.13;3.70;;;;;;;20.75;41.57;95367.72;5047189;28;20569;-63
2022/04/28 10:38:23;;;;;;;8.47;3.00;;;;;;;20.77;41.37;95370.88;5048997;28;20519;-62
2022/04/28 10:40:59;;;;;;;15.90;3.20;;;;;;;20.97;40.49;95360.47;5047973;28;20921;-60
2022/04/28 10:43:31;;;;;;;7.23;2.90;;;;;;;20.82;40.48;95363.53;5049138;28;20431;-56
2022/04/28 10:46:01;;;;;;;7.40;3.27;;;;;;;20.63;40.77;95363.00;5048604;28;20818;-57
2022/04/28 10:48:35;;;;;;;6.83;3.33;;;;;;;20.30;41.44;95367.06;5048510;28;20966;-54
2022/04/28 10:51:16;;;;;;;7.33;3.83;;;;;;;20.36;41.69;95355.19;5047789;28;20510;-54
2022/04/28 10:53:58;;;;;;;6.17;3.57;;;;;;;19.54;42.84;95364.59;5048848;28;20470;-58
2022/04/28 10:56:52;;;;;;;5.83;3.53;;;;;;;19.89;42.24;95366.44;5049954;28;20458;-58
2022/04/28 10:59:34;;;;;;;5.63;3.57;;;;;;;20.75;40.90;95362.41;5049810;28;20599;-59
2022/04/28 11:02:14;;;;;;;9.93;3.80;;;;;;;20.98;40.25;95354.03;5052586;28;20973;-60
2022/04/28 11:05:01;;;;;;;6.47;3.73;;;;;;;20.85;40.59;95359.50;5052210;28;20496;-61
2022/04/28 11:07:30;;;;;;;6.97;4.27;;;;;;;21.02;40.97;95354.25;5052673;28;20535;-59
2022/04/28 11:10:00;;;;;;;6.27;3.50;;;;;;;21.28;40.29;95349.75;5051731;28;20466;-56
2022/04/28 11:12:37;;;;;;;5.03;3.70;;;;;;;21.40;39.79;95349.16;5051111;28;20465;-58
2022/04/28 11:15:10;;;;;;;6.83;4.40;;;;;;;21.14;39.73;95349.91;5052248;28;20465;-55
2022/04/28 11:17:43;;;;;;;9.87;4.63;;;;;;;21.24;39.27;95340.03;5050778;28;20462;-61
2022/04/28 11:20:13;;;;;;;7.87;4.10;;;;;;;20.61;40.33;95359.88;5051796;28;20443;-60
2022/04/28 11:22:58;;;;;;;7.07;3.80;;;;;;;20.69;40.81;95353.78;5051076;28;20461;-57
2022/04/28 11:25:25;;;;;;;5.57;3.83;;;;;;;21.22;40.11;95347.56;5051335;28;20953;-60
2022/04/28 11:27:54;;;;;;;6.70;3.83;;;;;;;21.60;39.97;95352.00;5050775;28;20529;-59
2022/04/28 11:30:27;;;;;;;4.90;3.90;;;;;;;21.82;39.70;95348.41;5051550;28;20971;-52
2022/04/28 11:32:57;;;;;;;7.30;4.10;;;;;;;21.71;39.18;95347.13;5052142;28;20443;-58
2022/04/28 11:35:35;;;;;;;8.67;4.17;;;;;;;21.37;39.48;95352.44;5049977;28;20899;-57
2022/04/28 11:38:03;;;;;;;6.30;4.37;;;;;;;21.35;39.36;95349.31;5052167;28;20451;-56
2022/04/28 11:40:33;;;;;;;11.57;4.30;;;;;;;21.67;39.41;95343.53;5051136;28;20432;-60
2022/04/28 11:43:03;;;;;;;5.87;4.23;;;;;;;21.68;39.26;95347.75;5051807;28;20470;-61
2022/04/28 11:45:32;;;;;;;8.40;4.70;;;;;;;21.17;39.57;95346.59;5051498;28;20513;-54
2022/04/28 11:48:01;;;;;;;5.03;4.50;;;;;;;21.11;40.29;95350.50;5051576;28;20450;-59
2022/04/28 11:50:34;;;;;;;8.67;5.33;;;;;;;20.60;40.55;95352.19;5051084;28;20976;-52
2022/04/28 11:53:07;;;;;;;10.13;4.57;;;;;;;21.31;39.88;95346.47;5051725;28;20445;-54
2022/04/28 11:55:38;;;;;;;7.93;5.33;;;;;;;20.90;40.12;95344.16;5050949;28;21091;-55
2022/04/28 11:58:07;;;;;;;7.77;4.60;;;;;;;20.92;40.30;95341.97;5051786;28;20533;-57
2022/04/28 12:00:37;;;;;;;6.47;5.40;;;;;;;20.42;40.34;95342.56;5051294;28;21546;-57
2022/04/28 12:03:05;;;;;;;8.43;5.60;;;;;;;20.74;40.67;95334.22;5051823;28;20461;-61
2022/04/28 12:05:34;;;;;;;10.17;5.90;;;;;;;20.95;40.26;95335.22;5051223;28;20542;-56
2022/04/28 12:08:02;;;;;;;7.63;6.23;;;;;;;21.17;39.64;95326.38;5050237;28;20488;-55
2022/04/28 12:16:13;;;;;;;8.00;5.40;;;;;;;21.21;39.67;95332.63;5050846;28;20453;-56
2022/04/28 12:21:37;;;;;;;8.70;5.53;;;;;;;20.73;40.40;95338.75;5050483;28;20526;-56
2022/04/28 12:24:12;;;;;;;9.03;5.33;;;;;;;21.02;39.94;95323.03;5050997;28;20450;-61
2022/04/28 12:26:42;;;;;;;7.67;5.87;;;;;;;21.41;39.43;95326.72;5050769;28;20446;-52
2022/04/28 12:29:13;;;;;;;8.47;6.10;;;;;;;21.53;39.02;95330.31;5050935;28;20439;-58
2022/04/28 12:31:41;;;;;;;10.23;6.27;;;;;;;20.91;39.88;95324.38;5050397;28;20434;-56
2022/04/28 12:34:16;;;;;;;11.20;6.00;;;;;;;21.17;39.82;95321.06;5051137;28;20635;-62
2022/04/28 12:36:57;;;;;;;6.87;5.67;;;;;;;21.10;39.70;95332.16;5050337;28;20846;-58
2022/04/28 12:39:28;;;;;;;7.87;5.47;;;;;;;20.63;40.29;95325.72;5050491;28;20958;-59
2022/04/28 12:41:55;;;;;;;8.83;5.47;;;;;;;20.33;41.40;95321.19;5050072;28;20451;-60
2022/04/28 12:44:23;;;;;;;9.80;5.83;;;;;;;21.04;40.00;95322.72;5050903;28;20453;-53
2022/04/28 12:46:55;;;;;;;9.07;5.60;;;;;;;21.06;39.86;95315.22;5050341;28;20447;-60
2022/04/28 12:49:24;;;;;;;72.27;34.43;;;;;;;20.70;40.18;95312.75;5050504;28;20781;-60